createdAt,value
2018-09-27T05:14:40.029Z,6.90
2018-09-27T05:19:37.784Z,6.50
2018-09-27T05:24:35.445Z,6.60
2018-09-27T05:29:33.132Z,6.70
2018-09-27T05:34:30.908Z,6.90
2018-09-27T05:39:28.610Z,7.10
2018-09-27T05:44:26.299Z,7.20
2018-09-27T05:49:24.029Z,7.50
2018-09-27T05:54:21.715Z,7.10
2018-09-27T05:59:19.380Z,8.10
2018-09-27T06:04:17.049Z,8.50
2018-09-27T06:09:14.738Z,8.70
2018-09-27T06:14:12.417Z,8.80
2018-09-27T06:19:10.084Z,8.90
2018-09-27T06:24:07.809Z,8.70
2018-09-27T06:29:05.518Z,9.30
2018-09-27T06:34:03.212Z,9.30
2018-09-27T06:39:00.905Z,9.30
2018-09-27T06:43:58.561Z,9.30
2018-09-27T06:48:56.271Z,9.30
2018-09-27T06:53:53.932Z,9.30
2018-09-27T06:58:51.596Z,9.40
2018-09-27T07:03:49.258Z,9.60
2018-09-27T07:08:46.904Z,9.80
2018-09-27T07:13:44.567Z,10.00
2018-09-27T07:18:42.305Z,10.10
2018-09-27T07:23:39.968Z,10.40
2018-09-27T07:28:37.664Z,10.60
2018-09-27T07:33:35.412Z,10.80
2018-09-27T07:38:33.149Z,11.20
2018-09-27T07:43:30.780Z,11.40
2018-09-27T07:48:28.539Z,11.70
2018-09-27T07:53:26.165Z,11.80
2018-09-27T07:58:23.869Z,12.00
2018-09-27T08:03:21.540Z,12.30
2018-09-27T08:08:19.216Z,12.80
2018-09-27T08:13:16.942Z,13.00
2018-09-27T08:18:14.616Z,13.20
2018-09-27T08:23:12.298Z,13.40
2018-09-27T08:28:10.983Z,13.60
2018-09-27T08:33:08.820Z,13.90
2018-09-27T08:38:06.576Z,14.20
2018-09-27T08:43:04.201Z,14.30
2018-09-27T08:48:01.909Z,14.60
2018-09-27T08:52:59.557Z,14.80
2018-09-27T08:57:57.256Z,14.90
2018-09-27T09:02:54.938Z,15.00
2018-09-27T09:07:52.633Z,15.20
2018-09-27T09:12:50.277Z,15.30
2018-09-27T09:17:47.944Z,15.60
2018-09-27T09:22:45.616Z,15.70
2018-09-27T09:27:43.342Z,15.90
2018-09-27T09:32:40.992Z,16.20
2018-09-27T09:37:38.692Z,16.50
2018-09-27T09:42:36.356Z,16.90
2018-09-27T09:47:34.084Z,17.10
2018-09-27T09:52:31.765Z,17.30
2018-09-27T09:57:30.555Z,17.50
2018-09-27T10:02:28.299Z,17.60
2018-09-27T10:07:25.936Z,17.80
2018-09-27T10:12:23.588Z,18.00
2018-09-27T10:17:21.280Z,18.40
2018-09-27T10:22:18.944Z,18.70
2018-09-27T10:27:16.658Z,18.90
2018-09-27T10:32:14.352Z,19.10
2018-09-27T10:37:12.060Z,19.20
2018-09-27T10:42:09.732Z,19.50
2018-09-27T10:47:07.432Z,19.80
2018-09-27T10:52:05.081Z,20.10
2018-09-27T10:57:02.867Z,20.30
2018-09-27T11:02:00.508Z,20.40
2018-09-27T11:06:58.165Z,20.70
2018-09-27T11:11:55.837Z,21.00
2018-09-27T11:16:53.508Z,21.10
2018-09-27T11:21:51.216Z,21.40
2018-09-27T11:26:48.932Z,21.50
2018-09-27T11:31:52.237Z,21.60
2018-09-27T11:36:49.912Z,21.80
2018-09-27T11:41:47.616Z,22.00
2018-09-27T11:46:45.292Z,22.10
2018-09-27T11:51:42.983Z,22.40
2018-09-27T11:56:40.692Z,22.50
2018-09-27T12:01:38.555Z,22.70
2018-09-27T12:06:36.274Z,22.90
2018-09-27T12:11:34.001Z,23.00
2018-09-27T12:16:31.734Z,23.10
2018-09-27T12:21:29.404Z,23.00
2018-09-27T12:26:27.092Z,23.20
2018-09-27T12:31:24.796Z,23.30
2018-09-27T12:36:22.477Z,23.40
2018-09-27T12:41:20.141Z,23.60
2018-09-27T12:46:17.926Z,23.70
2018-09-27T12:51:15.700Z,23.70
2018-09-27T12:56:13.315Z,23.90
2018-09-27T13:01:11.338Z,24.10
2018-09-27T13:06:09.034Z,24.20
2018-09-27T13:11:06.726Z,24.20
2018-09-27T13:16:04.559Z,24.20
2018-09-27T13:21:02.249Z,24.20
2018-09-27T13:25:59.944Z,24.20
2018-09-27T13:30:57.701Z,24.50
2018-09-27T13:35:55.386Z,24.50
2018-09-27T13:40:53.233Z,24.60
2018-09-27T13:45:51.080Z,24.60
2018-09-27T13:50:48.773Z,24.60
2018-09-27T13:55:46.480Z,24.60
2018-09-27T14:00:44.228Z,24.50
2018-09-27T14:05:41.962Z,24.50
2018-09-27T14:10:39.664Z,24.70
2018-09-27T14:15:37.348Z,24.70
2018-09-27T14:20:35.025Z,24.70
2018-09-27T14:25:32.888Z,25.00
2018-09-27T14:30:30.564Z,25.00
2018-09-27T14:35:28.263Z,25.30
2018-09-27T14:40:26.007Z,25.50
2018-09-27T14:45:23.689Z,25.60
2018-09-27T14:50:21.431Z,25.70
2018-09-27T14:55:19.156Z,25.70
2018-09-27T15:00:16.833Z,25.80
2018-09-27T15:05:14.637Z,25.50
2018-09-27T15:10:12.368Z,25.00
2018-09-27T15:15:10.029Z,24.50
2018-09-27T15:20:08.793Z,24.10
2018-09-27T15:25:06.547Z,23.70
2018-09-27T15:30:04.813Z,23.40
2018-09-27T15:35:02.540Z,23.10
2018-09-27T15:40:00.241Z,22.90
2018-09-27T15:44:57.876Z,23.00
2018-09-27T15:49:55.591Z,22.80
2018-09-27T15:54:53.755Z,21.20
2018-09-27T15:59:51.452Z,22.70
2018-09-27T16:04:49.147Z,24.00
2018-09-27T16:09:46.812Z,26.10
2018-09-27T16:14:44.514Z,26.40
2018-09-27T16:19:42.168Z,26.90
2018-09-27T16:24:39.888Z,25.50
2018-09-27T16:29:37.633Z,23.10
2018-09-27T16:34:35.224Z,21.40
2018-09-27T16:39:33.260Z,20.40
2018-09-27T16:44:30.941Z,19.80
2018-09-27T16:49:28.596Z,19.40
2018-09-27T16:54:26.261Z,19.10
2018-09-27T16:59:23.957Z,18.80
2018-09-27T17:04:21.624Z,18.40
2018-09-27T17:09:19.390Z,18.10
2018-09-27T17:14:17.056Z,17.80
2018-09-27T17:19:14.736Z,17.60
2018-09-27T17:24:12.412Z,17.30
2018-09-27T17:29:10.190Z,17.10
2018-09-27T17:34:08.086Z,16.80
2018-09-27T17:39:06.783Z,16.50
2018-09-27T17:44:04.474Z,16.30
